Time;durP1;ratioP1;P1;durP2;ratioP2;P2;SDS_P1;SDS_P2;PMS_P1;PMS_P2;Temp;Humidity;BMP_temperature;BMP_pressure;BME280_temperature;BME280_humidity;BME280_pressure;Samples;Min_cycle;Max_cycle;Signal;HPM_P1;HPM_P2
2022/01/18 00:00:35;;;;;;;79.57;14.73;;;;;;;6.56;66.56;103909.69;5245172;28;20406;-44
2022/01/18 00:03:07;;;;;;;93.63;15.35;;;;;;;6.52;66.33;103908.06;5246741;28;20410;-43
2022/01/18 00:05:42;;;;;;;84.60;13.93;;;;;;;6.50;66.42;103909.88;5246118;28;20418;-46
2022/01/18 00:08:15;;;;;;;85.88;13.63;;;;;;;6.45;66.42;103918.78;5248775;28;20637;-44
2022/01/18 00:10:49;;;;;;;81.88;14.35;;;;;;;6.43;66.53;103914.47;5246991;28;20436;-43
2022/01/18 00:13:36;;;;;;;77.15;12.70;;;;;;;6.38;66.47;103911.13;5240794;28;20459;-46
2022/01/18 00:16:27;;;;;;;74.80;13.52;;;;;;;6.34;66.48;103912.97;5246299;28;20495;-43
2022/01/18 00:19:06;;;;;;;77.25;14.95;;;;;;;6.27;66.74;103919.31;5245128;28;20497;-42
2022/01/18 00:22:03;;;;;;;77.55;15.25;;;;;;;6.23;66.71;103913.31;5236290;28;20874;-43
2022/01/18 00:24:35;;;;;;;68.93;14.23;;;;;;;6.18;66.77;103920.47;5244399;28;20402;-43
2022/01/18 00:27:11;;;;;;;71.30;15.52;;;;;;;6.13;66.57;103917.13;5246029;28;20417;-44
2022/01/18 00:29:52;;;;;;;79.43;16.60;;;;;;;6.10;66.75;103919.84;5242490;28;20425;-43
2022/01/18 00:32:36;;;;;;;86.22;15.80;;;;;;;6.07;66.50;103916.41;5239931;28;20408;-43
2022/01/18 00:35:10;;;;;;;84.00;16.27;;;;;;;6.06;66.70;103909.47;5244950;28;20475;-44
2022/01/18 00:37:51;;;;;;;82.05;14.43;;;;;;;6.06;66.69;103919.97;5243660;28;20427;-44
2022/01/18 00:40:23;;;;;;;93.00;16.45;;;;;;;6.04;66.82;103919.13;5243576;28;20441;-45
2022/01/18 00:42:56;;;;;;;72.93;15.05;;;;;;;6.04;66.81;103919.13;5242661;28;20572;-52
2022/01/18 00:45:28;;;;;;;88.85;14.88;;;;;;;6.03;66.68;103922.69;5236782;28;20415;-42
2022/01/18 00:48:03;;;;;;;91.22;15.55;;;;;;;6.00;66.80;103927.09;5243994;28;20405;-43
2022/01/18 00:50:35;;;;;;;74.15;13.15;;;;;;;5.98;66.81;103923.69;5242799;28;20818;-43
2022/01/18 00:53:11;;;;;;;79.28;13.68;;;;;;;5.95;66.75;103926.38;5243551;28;20409;-41
2022/01/18 00:55:52;;;;;;;74.85;13.68;;;;;;;5.93;66.89;103922.94;5249064;28;20927;-43
2022/01/18 00:58:24;;;;;;;73.95;14.82;;;;;;;5.89;66.85;103912.56;5247475;28;20424;-49
2022/01/18 01:00:57;;;;;;;75.43;13.95;;;;;;;5.89;66.74;103918.66;5243626;28;20414;-42
2022/01/18 01:03:31;;;;;;;73.13;13.70;;;;;;;5.86;66.91;103910.88;5246277;28;20783;-46
2022/01/18 01:06:05;;;;;;;77.28;12.98;;;;;;;5.85;66.99;103911.75;5251422;28;20436;-46
2022/01/18 01:08:38;;;;;;;86.15;13.48;;;;;;;5.80;66.89;103924.16;5244653;28;20425;-46
2022/01/18 01:11:12;;;;;;;81.97;14.82;;;;;;;5.83;66.66;103912.72;5245707;28;20430;-43
2022/01/18 01:13:47;;;;;;;86.00;14.02;;;;;;;5.80;66.89;103908.44;5248735;28;20394;-42
2022/01/18 01:19:48;;;;;;;69.07;12.60;;;;;;;5.76;67.07;103901.53;5246330;28;20456;-45
2022/01/18 01:37:02;;;;;;;71.38;12.35;;;;;;;5.70;66.97;103902.59;5157347;28;20442;-43
2022/01/18 01:42:55;;;;;;;73.25;13.93;;;;;;;5.71;67.12;103914.78;5211581;28;20406;-46
2022/01/18 01:45:30;;;;;;;109.72;17.83;;;;;;;5.71;67.13;103909.53;5245578;28;20410;-43
2022/01/18 01:48:02;;;;;;;97.40;18.20;;;;;;;5.73;67.13;103906.91;5250478;28;20806;-45
2022/01/18 01:50:44;;;;;;;116.78;17.42;;;;;;;5.75;67.20;103910.31;5248957;28;20398;-43
2022/01/18 01:53:21;;;;;;;158.77;20.05;;;;;;;5.78;66.99;103915.47;5243978;28;20485;-46
2022/01/18 01:55:54;;;;;;;207.57;21.52;;;;;;;5.74;67.02;103908.59;5248287;28;20934;-43
2022/01/18 01:58:28;;;;;;;177.18;20.13;;;;;;;5.82;67.19;103927.59;5246807;28;20489;-44
2022/01/18 02:01:08;;;;;;;203.05;19.98;;;;;;;5.77;67.20;103905.91;5240825;28;20410;-44
2022/01/18 02:03:40;;;;;;;293.77;22.13;;;;;;;5.86;67.15;103918.75;5238861;28;20423;-45
2022/01/18 02:06:12;;;;;;;167.80;18.13;;;;;;;5.86;67.13;103912.66;5245726;28;20399;-43
2022/01/18 02:08:46;;;;;;;146.27;19.73;;;;;;;5.81;67.24;103899.66;5240840;28;20765;-43
2022/01/18 02:11:19;;;;;;;149.20;17.50;;;;;;;5.85;66.99;103905.66;5248339;28;20412;-43
2022/01/18 02:13:52;;;;;;;106.82;17.42;;;;;;;5.86;67.07;103912.66;5238488;28;20428;-48
2022/01/18 02:22:06;;;;;;;167.30;17.08;;;;;;;5.82;67.20;103909.22;5242981;28;20918;-43
2022/01/18 02:24:38;;;;;;;204.55;18.92;;;;;;;5.82;67.33;103906.59;5250127;28;21000;-47
2022/01/18 02:27:11;;;;;;;199.93;18.38;;;;;;;5.81;67.21;103931.13;5246067;28;20410;-49
2022/01/18 02:29:44;;;;;;;225.38;20.55;;;;;;;5.84;67.09;103910.06;5244721;28;20394;-43
2022/01/18 02:32:16;;;;;;;130.68;19.08;;;;;;;5.84;67.10;103909.19;5246601;28;20429;-43
2022/01/18 02:34:48;;;;;;;201.10;19.52;;;;;;;5.83;67.24;103905.72;5249697;28;20414;-54
2022/01/18 02:37:22;;;;;;;117.57;16.17;;;;;;;5.83;67.32;103907.50;5244968;28;20414;-47
2022/01/18 02:39:55;;;;;;;107.43;15.40;;;;;;;5.71;67.35;103882.47;5241590;28;20505;-54
2022/01/18 02:42:40;;;;;;;166.43;18.30;;;;;;;5.84;67.30;103902.19;5245762;28;20416;-43
2022/01/18 02:45:12;;;;;;;114.20;15.02;;;;;;;5.86;67.25;103903.00;5251598;28;20394;-43
2022/01/18 02:47:46;;;;;;;139.35;17.05;;;;;;;5.87;67.41;103904.72;5246725;28;20398;-45
2022/01/18 02:50:18;;;;;;;106.97;15.00;;;;;;;5.89;67.42;103900.31;5250470;28;20497;-43
2022/01/18 02:52:52;;;;;;;225.35;20.33;;;;;;;5.91;67.13;103910.72;5242405;28;20426;-43
2022/01/18 02:55:24;;;;;;;205.03;18.63;;;;;;;5.92;67.29;103902.84;5242463;28;20420;-43
2022/01/18 02:58:03;;;;;;;139.18;16.85;;;;;;;5.93;67.27;103915.06;5237226;28;20412;-51
2022/01/18 03:00:45;;;;;;;124.10;16.50;;;;;;;5.90;67.24;103901.16;5249461;28;20511;-45
2022/01/18 03:03:17;;;;;;;100.47;16.20;;;;;;;5.93;67.20;103917.69;5243930;28;20414;-44
2022/01/18 03:05:49;;;;;;;133.97;18.87;;;;;;;5.91;67.34;103906.34;5244626;28;20489;-53
2022/01/18 03:08:23;;;;;;;147.32;18.52;;;;;;;5.81;67.42;103891.78;5242339;28;20413;-46
2022/01/18 03:10:56;;;;;;;151.37;18.73;;;;;;;5.90;67.29;103907.25;5248486;28;20454;-43
2022/01/18 03:13:29;;;;;;;161.48;19.55;;;;;;;5.90;67.58;103909.88;5243841;28;20414;-43
2022/01/18 03:16:01;;;;;;;202.57;21.25;;;;;;;5.89;67.40;103913.41;5245950;28;20815;-42
2022/01/18 03:18:33;;;;;;;231.52;22.05;;;;;;;5.90;67.35;103898.53;5241478;28;20430;-42
2022/01/18 03:21:07;;;;;;;126.68;18.10;;;;;;;5.89;67.53;103908.16;5238554;28;20903;-41
2022/01/18 03:23:40;;;;;;;136.85;19.38;;;;;;;5.87;67.55;103912.59;5243027;28;20422;-46
2022/01/18 03:26:16;;;;;;;305.55;26.13;;;;;;;5.88;67.44;103916.91;5239342;28;20504;-45
2022/01/18 03:28:47;;;;;;;169.98;20.70;;;;;;;5.84;67.42;103903.94;5243816;28;20492;-44
2022/01/18 03:31:20;;;;;;;182.37;21.03;;;;;;;5.88;67.57;103914.28;5247771;28;20451;-45
2022/01/18 03:33:52;;;;;;;169.50;19.92;;;;;;;5.88;67.59;103910.81;5244962;28;20394;-48
2022/01/18 03:36:24;;;;;;;144.27;19.35;;;;;;;5.86;67.50;103913.50;5249443;28;20972;-43
2022/01/18 03:38:58;;;;;;;187.15;20.38;;;;;;;5.86;67.50;103908.25;5245644;28;20406;-42
2022/01/18 03:41:30;;;;;;;175.25;21.80;;;;;;;5.86;67.48;103903.00;5246817;28;20767;-45
2022/01/18 03:44:02;;;;;;;103.82;18.42;;;;;;;5.84;67.50;103910.06;5244349;28;20494;-47
2022/01/18 03:46:36;;;;;;;87.10;15.30;;;;;;;5.81;67.52;103909.28;5246226;28;20417;-43
2022/01/18 03:49:09;;;;;;;104.82;16.58;;;;;;;5.79;67.54;103917.19;5241584;28;20891;-43
2022/01/18 03:51:41;;;;;;;107.82;15.93;;;;;;;5.69;67.81;103905.22;5248078;28;21458;-45
2022/01/18 03:54:21;;;;;;;114.28;15.80;;;;;;;5.74;67.51;103913.84;5244116;28;20890;-42
2022/01/18 03:56:53;;;;;;;99.53;19.05;;;;;;;5.72;67.72;103910.41;5237574;28;20398;-43
2022/01/18 03:59:25;;;;;;;103.05;16.35;;;;;;;5.71;67.67;103911.31;5243778;28;20400;-45
2022/01/18 04:01:58;;;;;;;106.82;15.05;;;;;;;5.69;67.63;103910.47;5244447;28;20418;-44
2022/01/18 04:04:30;;;;;;;127.93;15.88;;;;;;;5.67;67.67;103928.03;5247923;28;20501;-44
2022/01/18 04:07:02;;;;;;;148.32;15.38;;;;;;;5.64;67.61;103922.88;5244811;28;20405;-45
2022/01/18 04:09:37;;;;;;;132.70;16.20;;;;;;;5.53;67.78;103908.28;5248591;28;20832;-44
2022/01/18 04:12:10;;;;;;;201.52;19.65;;;;;;;5.70;67.54;103933.19;5235929;28;20422;-49
2022/01/18 04:14:44;;;;;;;489.27;32.15;;;;;;;5.72;67.53;103928.75;5241574;28;20408;-48
2022/01/18 04:17:31;;;;;;;145.03;17.93;;;;;;;5.74;67.77;103929.59;5246602;28;20501;-44
2022/01/18 04:25:54;;;;;;;173.25;20.88;;;;;;;5.76;67.71;103940.88;5239245;28;20909;-44
2022/01/18 04:28:35;;;;;;;216.30;21.40;;;;;;;5.75;67.77;103933.91;5239927;28;20812;-45
2022/01/18 04:31:10;;;;;;;270.20;23.57;;;;;;;5.68;67.79;103919.25;5246340;28;20424;-46
2022/01/18 04:33:42;;;;;;;199.45;21.48;;;;;;;5.74;67.79;103929.59;5251835;28;20394;-42
2022/01/18 04:36:15;;;;;;;180.87;20.13;;;;;;;5.69;67.72;103931.47;5249105;28;20960;-45
2022/01/18 04:38:47;;;;;;;168.80;21.70;;;;;;;5.71;67.81;103934.91;5251037;28;20405;-42
2022/01/18 04:41:26;;;;;;;159.68;21.58;;;;;;;5.69;67.91;103937.56;5242568;28;20831;-44
2022/01/18 04:44:18;;;;;;;238.23;23.83;;;;;;;5.68;67.70;103938.47;5248287;28;20418;-42
2022/01/18 04:49:40;;;;;;;246.98;24.27;;;;;;;5.63;67.71;103923.75;5253569;28;20402;-43
2022/01/18 04:52:13;;;;;;;199.75;21.80;;;;;;;5.61;67.86;103926.44;5247141;28;20414;-44
2022/01/18 04:54:56;;;;;;;189.93;21.75;;;;;;;5.62;68.05;103929.91;5245929;28;20390;-43
2022/01/18 05:00:32;;;;;;;286.35;26.42;;;;;;;5.57;67.87;103922.16;5206328;28;20425;-44
2022/01/18 05:03:04;;;;;;;275.07;27.67;;;;;;;5.58;67.93;103928.28;5237144;28;20426;-44
2022/01/18 05:05:37;;;;;;;233.52;26.15;;;;;;;5.58;67.90;103920.41;5249574;28;20449;-47
2022/01/18 05:08:13;;;;;;;334.88;31.60;;;;;;;5.58;67.96;103923.03;5247185;28;20485;-45
2022/01/18 05:10:51;;;;;;;326.02;30.83;;;;;;;5.53;67.99;103926.63;5247397;28;21938;-44
2022/01/18 05:13:48;;;;;;;282.45;29.63;;;;;;;5.53;67.90;103931.00;5244971;28;20926;-44
2022/01/18 05:19:17;;;;;;;129.70;22.35;;;;;;;5.48;67.74;103925.91;5249465;28;20501;-43
2022/01/18 05:24:39;;;;;;;101.10;22.83;;;;;;;5.41;67.88;103932.19;5249256;28;20421;-43
2022/01/18 05:27:12;;;;;;;109.93;20.88;;;;;;;5.36;67.92;103918.38;5248484;28;20418;-45
2022/01/18 05:29:45;;;;;;;85.18;19.75;;;;;;;5.32;68.27;103917.56;5251903;28;20410;-44
2022/01/18 05:32:18;;;;;;;77.18;17.45;;;;;;;5.29;68.07;103922.88;5248388;28;20505;-42
2022/01/18 05:34:50;;;;;;;72.82;17.15;;;;;;;5.26;68.04;103922.09;5248102;28;20404;-42
2022/01/18 05:37:22;;;;;;;96.20;19.07;;;;;;;5.22;68.08;103920.47;5242480;28;20452;-44
2022/01/18 05:39:55;;;;;;;222.88;27.88;;;;;;;5.21;68.14;103924.00;5251201;28;20410;-46
2022/01/18 05:42:27;;;;;;;132.50;21.27;;;;;;;5.17;68.15;103928.47;5249388;28;20493;-44
2022/01/18 05:45:01;;;;;;;140.98;24.20;;;;;;;5.16;68.31;103931.13;5249089;28;20420;-43
2022/01/18 05:47:33;;;;;;;170.23;26.58;;;;;;;5.15;68.23;103930.25;5252287;28;20427;-43
2022/01/18 05:50:08;;;;;;;276.23;32.47;;;;;;;5.18;68.09;103929.31;5243994;28;20413;-43
2022/01/18 05:52:41;;;;;;;222.32;29.83;;;;;;;5.19;68.23;103924.03;5247154;28;20413;-45
2022/01/18 05:55:14;;;;;;;131.30;23.50;;;;;;;5.21;68.36;103918.75;5253636;28;20398;-43
2022/01/18 05:57:46;;;;;;;272.35;30.80;;;;;;;5.25;68.03;103917.78;5251925;28;20420;-43
2022/01/18 06:00:22;;;;;;;310.47;31.63;;;;;;;5.25;68.19;103913.38;5246671;28;20427;-47
2022/01/18 06:03:02;;;;;;;268.05;31.65;;;;;;;5.25;68.18;103915.16;5232242;28;20765;-43
2022/01/18 06:08:25;;;;;;;251.43;31.17;;;;;;;5.27;68.30;103921.22;5238753;28;20394;-43
2022/01/18 06:10:57;;;;;;;296.05;35.50;;;;;;;5.28;68.40;103931.66;5253658;28;20432;-43
2022/01/18 06:13:29;;;;;;;263.83;37.20;;;;;;;5.29;68.16;103928.13;5234065;28;20749;-47
2022/01/18 06:16:04;;;;;;;339.35;48.00;;;;;;;5.29;68.33;103927.28;5232556;28;20411;-44
2022/01/18 06:18:36;;;;;;;294.25;37.85;;;;;;;5.30;68.38;103934.25;5247457;28;20717;-44
2022/01/18 06:21:09;;;;;;;181.65;31.50;;;;;;;5.32;68.44;103937.69;5234374;28;20415;-43
2022/01/18 06:23:41;;;;;;;181.82;30.60;;;;;;;5.32;68.29;103935.91;5245936;28;20414;-43
2022/01/18 06:26:15;;;;;;;272.92;36.17;;;;;;;5.33;68.39;103939.41;5247042;28;20404;-44
2022/01/18 06:28:47;;;;;;;213.98;31.65;;;;;;;5.35;68.29;103934.97;5248319;28;20417;-54
2022/01/18 06:31:21;;;;;;;296.80;35.30;;;;;;;5.36;68.25;103934.09;5249717;28;20875;-42
2022/01/18 06:33:53;;;;;;;165.02;28.90;;;;;;;5.38;68.43;103927.03;5249811;28;20406;-44
2022/01/18 06:36:26;;;;;;;182.82;29.77;;;;;;;5.38;68.41;103934.91;5251379;28;20449;-46
2022/01/18 06:38:58;;;;;;;268.70;32.72;;;;;;;5.39;68.36;103933.13;5242761;28;20495;-42
2022/01/18 06:41:30;;;;;;;157.13;28.90;;;;;;;5.39;68.34;103939.25;5250940;28;20410;-44
2022/01/18 06:44:03;;;;;;;269.67;35.33;;;;;;;5.41;68.32;103937.44;5243637;28;20781;-42
2022/01/18 06:46:37;;;;;;;350.98;41.63;;;;;;;5.41;68.16;103932.19;5246937;28;20425;-42
2022/01/18 06:49:09;;;;;;;309.40;38.73;;;;;;;5.43;68.35;103935.66;5252235;28;20783;-42
2022/01/18 06:51:41;;;;;;;301.08;39.47;;;;;;;5.44;68.50;103939.13;5250081;28;22038;-42
2022/01/18 06:54:16;;;;;;;371.60;41.90;;;;;;;5.45;68.16;103944.34;5250662;28;20676;-42
2022/01/18 06:56:50;;;;;;;258.80;34.80;;;;;;;5.45;68.28;103944.34;5244044;28;20406;-42
2022/01/18 06:59:22;;;;;;;327.58;51.22;;;;;;;5.43;68.40;103940.88;5246818;28;20456;-45
2022/01/18 07:01:56;;;;;;;270.40;45.17;;;;;;;5.44;68.23;103936.50;5248353;28;20797;-41
2022/01/18 07:04:28;;;;;;;307.35;42.50;;;;;;;5.43;68.42;103935.66;5239228;28;20408;-44
2022/01/18 07:07:00;;;;;;;189.57;27.00;;;;;;;5.40;68.39;103935.72;5235661;28;20432;-41
2022/01/18 07:09:34;;;;;;;151.30;25.65;;;;;;;5.35;68.38;103944.59;5228252;28;20419;-44
2022/01/18 07:12:11;;;;;;;133.25;23.00;;;;;;;5.31;68.69;103941.19;5241451;28;20402;-43
2022/01/18 07:14:44;;;;;;;194.70;27.27;;;;;;;5.31;68.33;103943.81;5230907;28;20956;-45
2022/01/18 07:17:17;;;;;;;119.75;21.85;;;;;;;5.31;68.55;103935.97;5232890;28;20487;-43
2022/01/18 07:19:50;;;;;;;182.25;26.40;;;;;;;5.31;68.59;103942.06;5228797;28;20423;-44
2022/01/18 07:22:22;;;;;;;212.35;28.08;;;;;;;5.33;68.38;103939.41;5225397;28;20404;-45
2022/01/18 07:24:57;;;;;;;221.48;30.65;;;;;;;5.33;68.38;103955.13;5224277;28;20508;-44
2022/01/18 07:27:30;;;;;;;311.90;34.95;;;;;;;5.33;68.62;103944.66;5221574;28;20840;-45
2022/01/18 07:30:03;;;;;;;204.45;30.65;;;;;;;5.36;68.66;103944.56;5213694;28;20983;-43
2022/01/18 07:32:37;;;;;;;278.60;36.58;;;;;;;5.38;68.55;103942.75;5224112;28;20424;-43
2022/01/18 07:35:12;;;;;;;254.00;32.42;;;;;;;5.37;68.57;103943.66;5225532;28;20420;-42
2022/01/18 07:37:44;;;;;;;270.83;37.72;;;;;;;5.37;68.57;103946.28;5226796;28;20412;-44
2022/01/18 07:40:16;;;;;;;243.80;31.88;;;;;;;5.38;68.72;103949.75;5226185;28;20789;-45
2022/01/18 07:42:49;;;;;;;275.58;36.17;;;;;;;5.36;68.62;103955.06;5225218;28;20408;-42
2022/01/18 07:45:21;;;;;;;229.95;30.40;;;;;;;5.34;68.62;103949.00;5226566;28;20419;-45
2022/01/18 07:47:55;;;;;;;261.10;33.00;;;;;;;5.32;68.75;103948.16;5222917;28;20967;-46
2022/01/18 07:50:28;;;;;;;235.43;32.90;;;;;;;5.31;68.75;103956.94;5224869;28;20420;-42
2022/01/18 07:53:00;;;;;;;211.90;31.77;;;;;;;5.33;68.66;103960.38;5225214;28;20407;-47
2022/01/18 07:55:33;;;;;;;191.32;32.15;;;;;;;5.34;68.88;103961.25;5221133;28;20419;-46
2022/01/18 07:58:05;;;;;;;224.15;33.42;;;;;;;5.36;68.83;103957.69;5222315;28;20498;-45
2022/01/18 08:00:37;;;;;;;214.33;35.97;;;;;;;5.39;68.81;103954.97;5223318;28;20425;-46
2022/01/18 08:03:12;;;;;;;217.02;33.08;;;;;;;5.43;68.75;103956.63;5221374;28;20423;-43
2022/01/18 08:05:45;;;;;;;150.90;28.55;;;;;;;5.49;68.80;103958.22;5228029;28;20419;-42
2022/01/18 08:08:17;;;;;;;153.32;28.63;;;;;;;5.50;68.60;103960.78;5221426;28;20480;-44
2022/01/18 08:10:49;;;;;;;189.75;29.52;;;;;;;5.52;68.76;103956.38;5222096;28;20724;-44
2022/01/18 08:13:26;;;;;;;139.93;27.83;;;;;;;5.58;68.55;103962.38;5219736;28;20772;-45
2022/01/18 08:16:10;;;;;;;152.48;27.20;;;;;;;5.61;68.81;103955.28;5225066;28;20431;-46
2022/01/18 08:18:44;;;;;;;139.38;24.80;;;;;;;5.62;68.68;103961.38;5225877;28;20762;-44
2022/01/18 08:21:17;;;;;;;134.05;24.77;;;;;;;5.64;68.59;103954.34;5220183;28;20408;-45
2022/01/18 08:23:50;;;;;;;143.10;24.70;;;;;;;5.63;68.79;103952.59;5219968;28;20407;-43
2022/01/18 08:26:22;;;;;;;128.00;25.95;;;;;;;5.66;68.79;103944.66;5236492;28;20451;-45
2022/01/18 08:28:54;;;;;;;122.78;25.52;;;;;;;5.73;68.70;103956.72;5250892;28;20480;-42
2022/01/18 08:31:27;;;;;;;110.38;21.75;;;;;;;5.75;68.68;103958.38;5246160;28;20796;-44
2022/01/18 08:34:00;;;;;;;94.87;20.27;;;;;;;5.79;68.65;103959.13;5245807;28;20437;-43
2022/01/18 08:36:33;;;;;;;119.70;23.25;;;;;;;5.84;68.80;103956.41;5240270;28;20508;-43
2022/01/18 08:39:06;;;;;;;117.75;23.48;;;;;;;5.87;68.88;103959.81;5245705;28;20424;-44
2022/01/18 08:41:38;;;;;;;110.75;22.35;;;;;;;5.90;68.55;103956.25;5249166;28;21047;-43
2022/01/18 08:44:10;;;;;;;117.40;22.92;;;;;;;5.90;68.75;103951.84;5248132;28;20394;-42
2022/01/18 08:46:43;;;;;;;134.95;22.10;;;;;;;6.00;68.90;103953.34;5246016;28;20408;-44
2022/01/18 08:49:17;;;;;;;111.72;23.05;;;;;;;6.07;68.70;103954.03;5239520;28;20419;-46
2022/01/18 08:51:49;;;;;;;119.55;21.98;;;;;;;6.12;68.70;103957.38;5245307;28;20773;-44
2022/01/18 08:54:22;;;;;;;161.45;26.48;;;;;;;5.99;68.88;103935.03;5244118;28;20519;-41
2022/01/18 08:56:54;;;;;;;140.33;25.17;;;;;;;6.11;68.86;103954.81;5246726;28;20408;-42
2022/01/18 08:59:28;;;;;;;153.90;27.17;;;;;;;6.11;68.87;103950.41;5250714;28;20413;-43
2022/01/18 09:02:00;;;;;;;135.98;29.30;;;;;;;6.16;68.96;103960.75;5242716;28;20451;-44
2022/01/18 09:04:34;;;;;;;141.43;30.40;;;;;;;6.21;68.86;103961.50;5244471;28;20501;-42
2022/01/18 09:07:10;;;;;;;168.68;30.85;;;;;;;6.22;68.78;103961.47;5248903;28;20414;-42
2022/01/18 09:09:44;;;;;;;129.30;29.13;;;;;;;6.22;68.79;103963.22;5249286;28;20430;-42
2022/01/18 09:12:17;;;;;;;128.13;25.08;;;;;;;6.23;69.08;103963.19;5251258;28;20414;-43
2022/01/18 09:14:50;;;;;;;113.68;24.10;;;;;;;6.23;68.81;103954.47;5243906;28;20445;-46
2022/01/18 09:17:22;;;;;;;104.67;21.50;;;;;;;6.22;69.08;103958.84;5242045;28;20535;-48
2022/01/18 09:19:56;;;;;;;80.45;14.95;;;;;;;6.20;68.85;103954.53;5245381;28;20412;-42
2022/01/18 09:22:29;;;;;;;62.00;15.63;;;;;;;6.24;68.94;103971.91;5243283;28;20423;-47
2022/01/18 09:25:01;;;;;;;73.97;14.90;;;;;;;6.24;68.98;103966.66;5245648;28;21046;-43
2022/01/18 09:27:34;;;;;;;81.05;12.55;;;;;;;6.23;69.21;103970.19;5243298;28;20907;-43
2022/01/18 09:30:08;;;;;;;64.18;15.18;;;;;;;6.23;69.28;103964.94;5245586;28;20425;-44
2022/01/18 09:32:41;;;;;;;70.68;15.75;;;;;;;6.23;69.23;103964.94;5238392;28;20851;-51
2022/01/18 09:35:17;;;;;;;74.93;18.02;;;;;;;6.26;69.22;103970.13;5245631;28;20406;-43
2022/01/18 09:37:50;;;;;;;91.82;22.42;;;;;;;6.35;69.08;103964.59;5240531;28;20415;-43
2022/01/18 09:40:23;;;;;;;75.70;19.65;;;;;;;6.40;69.14;103967.91;5239882;28;20425;-47
2022/01/18 09:43:00;;;;;;;77.97;19.48;;;;;;;6.39;69.13;103963.59;5238611;28;20893;-43
2022/01/18 09:45:32;;;;;;;68.97;18.37;;;;;;;6.40;69.03;103967.91;5244721;28;20440;-43
2022/01/18 09:48:06;;;;;;;73.15;17.02;;;;;;;6.40;69.35;103972.31;5247663;28;20508;-44
2022/01/18 09:50:42;;;;;;;55.28;16.63;;;;;;;6.34;69.23;103967.25;5236470;28;20437;-43
2022/01/18 09:53:15;;;;;;;53.75;17.25;;;;;;;6.32;69.30;103974.28;5222905;28;20416;-43
2022/01/18 09:55:49;;;;;;;57.88;18.60;;;;;;;6.34;69.35;103973.34;5238495;28;21199;-42
2022/01/18 09:58:22;;;;;;;78.22;18.50;;;;;;;6.38;69.44;103985.50;5239833;28;20406;-42
2022/01/18 10:00:55;;;;;;;37.63;13.43;;;;;;;6.38;69.39;103984.63;5239121;28;20466;-43
2022/01/18 10:03:31;;;;;;;34.80;12.13;;;;;;;6.35;69.50;103990.84;5240445;28;20477;-45
2022/01/18 10:06:07;;;;;;;35.55;12.15;;;;;;;6.30;69.53;103992.72;5245919;28;20410;-43
2022/01/18 10:08:43;;;;;;;59.88;12.45;;;;;;;6.31;69.49;103989.19;5235170;28;20507;-44
2022/01/18 10:11:17;;;;;;;55.03;12.68;;;;;;;6.28;69.56;103994.53;5245254;28;20464;-44
2022/01/18 10:13:50;;;;;;;38.03;13.25;;;;;;;6.24;69.50;103995.53;5241233;28;20491;-43
2022/01/18 10:16:24;;;;;;;39.00;13.80;;;;;;;6.24;69.57;103992.91;5246419;28;20440;-45
2022/01/18 10:19:02;;;;;;;48.70;15.85;;;;;;;6.20;69.45;103993.91;5241870;28;20731;-42
2022/01/18 10:22:12;;;;;;;51.53;15.45;;;;;;;6.33;69.20;103994.41;5242037;28;20414;-42
2022/01/18 10:24:45;;;;;;;41.95;14.38;;;;;;;6.30;69.57;103990.09;5170128;28;1919565;-45
2022/01/18 10:27:19;;;;;;;39.60;14.43;;;;;;;6.30;69.64;103991.88;5243306;28;20451;-43
2022/01/18 10:29:52;;;;;;;37.05;14.20;;;;;;;6.34;69.41;103996.13;5246193;28;20405;-46
2022/01/18 10:32:33;;;;;;;40.05;15.40;;;;;;;6.38;69.38;103985.50;5245373;28;20912;-43
2022/01/18 10:35:09;;;;;;;41.03;19.08;;;;;;;6.44;69.41;103985.31;5245545;28;20422;-43
2022/01/18 10:37:43;;;;;;;49.53;19.15;;;;;;;6.53;69.54;103983.31;5247490;28;20420;-43
2022/01/18 10:40:19;;;;;;;42.08;16.50;;;;;;;6.63;69.36;103977.75;5241710;28;20448;-45
2022/01/18 10:42:53;;;;;;;38.38;15.65;;;;;;;6.73;69.26;103972.22;5248281;28;20414;-43
2022/01/18 10:45:30;;;;;;;35.78;15.15;;;;;;;6.73;69.19;103970.44;5243070;28;20418;-43
2022/01/18 10:48:10;;;;;;;40.72;17.17;;;;;;;6.74;69.40;103971.28;5243427;28;21743;-42
2022/01/18 10:50:45;;;;;;;58.53;15.52;;;;;;;6.63;69.31;103953.25;5245379;28;20429;-43
2022/01/18 10:53:21;;;;;;;45.92;16.65;;;;;;;6.66;69.31;103971.56;5243627;28;20410;-46
2022/01/18 10:56:14;;;;;;;36.65;17.58;;;;;;;6.61;69.47;103965.56;5235805;28;20428;-44
2022/01/18 10:58:52;;;;;;;59.80;20.35;;;;;;;6.64;69.36;103970.72;5246552;28;20414;-42
2022/01/18 11:01:25;;;;;;;33.95;16.77;;;;;;;6.68;69.48;103972.34;5247546;28;20413;-44
2022/01/18 11:04:12;;;;;;;35.65;16.90;;;;;;;6.74;69.32;103976.53;5233463;28;20918;-42
2022/01/18 11:06:58;;;;;;;45.15;18.27;;;;;;;6.81;69.40;103972.81;5242609;28;20417;-43
2022/01/18 11:09:33;;;;;;;41.83;19.80;;;;;;;6.84;69.51;103970.94;5238517;28;20435;-44
2022/01/18 11:12:06;;;;;;;55.08;22.23;;;;;;;6.86;69.31;103970.91;5240233;28;20414;-48
2022/01/18 11:14:44;;;;;;;49.58;21.60;;;;;;;6.92;69.51;103966.31;5246121;28;20869;-42
2022/01/18 11:17:23;;;;;;;48.42;21.08;;;;;;;7.02;69.33;103960.75;5249516;28;20833;-50
2022/01/18 11:19:57;;;;;;;68.18;27.10;;;;;;;7.04;69.37;103958.94;5250700;28;20406;-44
2022/01/18 11:22:29;;;;;;;77.53;30.05;;;;;;;7.04;69.36;103964.22;5244699;28;20764;-45
2022/01/18 11:25:05;;;;;;;107.47;31.23;;;;;;;7.03;69.35;103963.34;5244971;28;20491;-45
2022/01/18 11:27:39;;;;;;;112.07;36.67;;;;;;;7.03;69.37;103963.34;5245061;28;20487;-43
2022/01/18 11:30:15;;;;;;;114.25;37.42;;;;;;;7.04;69.37;103985.22;5249458;28;20741;-43
2022/01/18 11:32:48;;;;;;;115.47;40.08;;;;;;;7.11;69.46;103955.22;5250230;28;20418;-43
2022/01/18 11:35:27;;;;;;;114.00;41.40;;;;;;;7.21;69.39;103967.13;5247912;28;20929;-45
2022/01/18 11:38:07;;;;;;;102.03;35.58;;;;;;;7.26;69.25;103957.31;5243805;28;20901;-47
2022/01/18 11:40:47;;;;;;;102.45;39.25;;;;;;;7.29;69.30;103951.97;5244053;28;20414;-44
2022/01/18 11:43:36;;;;;;;102.60;37.88;;;;;;;7.22;69.31;103937.31;5243525;28;20417;-43
2022/01/18 11:46:24;;;;;;;102.88;38.15;;;;;;;7.39;69.40;103950.72;5244490;28;20960;-43
2022/01/18 11:49:04;;;;;;;89.38;36.45;;;;;;;7.42;69.35;103954.19;5247513;28;20410;-44
2022/01/18 11:51:40;;;;;;;89.65;36.78;;;;;;;7.45;69.32;103947.03;5246080;28;20885;-45
2022/01/18 11:54:27;;;;;;;99.35;38.20;;;;;;;7.41;69.32;103940.19;5243079;28;20466;-44
2022/01/18 11:57:01;;;;;;;88.60;37.83;;;;;;;7.49;69.39;103945.16;5245392;28;20451;-45
2022/01/18 11:59:41;;;;;;;78.88;34.60;;;;;;;7.51;69.32;103953.84;5238850;28;20408;-44
2022/01/18 12:02:28;;;;;;;87.10;35.70;;;;;;;7.53;69.48;103954.69;5238068;28;20526;-47
2022/01/18 12:05:13;;;;;;;85.93;34.58;;;;;;;7.49;69.60;103955.66;5239301;28;20778;-45
2022/01/18 12:07:58;;;;;;;72.55;32.03;;;;;;;7.46;69.57;103961.03;5239378;28;20427;-48
2022/01/18 12:10:49;;;;;;;73.75;34.22;;;;;;;7.45;69.59;103951.44;5238893;28;20417;-46
2022/01/18 12:13:36;;;;;;;75.03;33.35;;;;;;;7.50;69.58;103942.50;5243158;28;20406;-45
2022/01/18 12:16:19;;;;;;;79.10;33.50;;;;;;;7.51;69.51;103943.34;5243084;28;20479;-44
2022/01/18 12:19:02;;;;;;;75.80;33.03;;;;;;;7.56;69.53;103941.41;5243427;28;20402;-44
2022/01/18 12:21:36;;;;;;;88.13;33.88;;;;;;;7.62;69.67;103941.19;5238076;28;20413;-44
2022/01/18 12:24:19;;;;;;;81.05;32.50;;;;;;;7.61;69.54;103942.09;5243825;28;20413;-42
2022/01/18 12:27:01;;;;;;;86.35;34.80;;;;;;;7.58;69.47;103935.16;5243235;28;20403;-44
2022/01/18 12:30:00;;;;;;;73.32;30.35;;;;;;;7.54;69.65;103937.97;5233640;28;20408;-44
2022/01/18 12:35:26;;;;;;;94.55;35.80;;;;;;;7.53;69.51;103936.25;5242199;28;20420;-45
2022/01/18 12:37:59;;;;;;;99.93;36.40;;;;;;;7.57;69.70;103932.59;5245854;28;20413;-45